CMA CGM Thalassa — 5BNE2 — position and weather

sailwx.info

Track history (hours):
 
Tides and Currents Weather Stations Pressure Air Temp Water Temp Dewpoint Dewpoint Depression Visibility Wind Speed Wind Dir Waves Ship Positions

CMA CGM Thalassa

Last reported at 2017-May-16 10:15 UTC. Time now 2017-May-25 22:06 UTC.
Position N 02°01' E 102°11'.
Warning: this ship's position is 9 days out of date.

Length 347 m; draft 14.2 m.

Type: Ship (hazmat cat A). MMSI: 212151000.

Date/timePositionNaut miles runAvg speedWind from/ knotsBaromVisibWave heightAir tempDewpointWater temp
2017-May-16 10:15N 02°01' E 102°11'417.2
2017-May-16 10:00N 01°58' E 102°15'817.0
2017-May-16 09:30N 01°55' E 102°22'917.1
2017-May-16 08:59N 01°50' E 102°30'817.1
2017-May-16 08:30N 01°47' E 102°37'1018.4
2017-May-16 07:57N 01°42' E 102°47'818.0
2017-May-16 07:30N 01°40' E 102°54'3417.0
2017-May-16 05:30N 01°18' E 103°21'816.0
2017-May-16 05:00N 01°14' E 103°27'815.9
2017-May-16 04:30N 01°12' E 103°35'510.1
2017-May-16 04:00N 01°12' E 103°40'611.0
2017-May-16 03:30N 01°16' E 103°44'2 4.5
2017-May-16 02:59N 01°15' E 103°47'0 0.4
2017-May-16 02:28N 01°15' E 103°47'0 0.0
2017-May-16 01:58N 01°15' E 103°47'0 0.0
2017-May-16 01:28N 01°15' E 103°47'0 0.0
2017-May-16 00:55N 01°15' E 103°47'0 0.0
2017-May-16 00:25N 01°15' E 103°47'0 0.0
2017-May-15 23:57N 01°15' E 103°47'0 0.0
2017-May-15 23:30N 01°15' E 103°47'0 0.0
2017-May-15 22:57N 01°15' E 103°47'0 0.0
2017-May-15 22:30N 01°15' E 103°47'0 0.0
2017-May-15 22:00N 01°15' E 103°47'0 0.0
2017-May-15 21:29N 01°15' E 103°47'0 0.0
2017-May-15 20:59N 01°15' E 103°47'0 0.0
2017-May-15 20:29N 01°15' E 103°47'0 0.0
2017-May-15 19:59N 01°15' E 103°47'0 0.0
2017-May-15 19:28N 01°15' E 103°47'0 0.0
2017-May-15 18:58N 01°15' E 103°47'0 0.0
2017-May-15 18:28N 01°15' E 103°47'0 0.0
2017-May-15 17:58N 01°15' E 103°47'0 0.0
2017-May-15 17:25N 01°15' E 103°47'0 0.0
2017-May-15 17:00N 01°15' E 103°47'0 0.0
2017-May-15 16:30N 01°15' E 103°47'0 0.0
2017-May-15 15:54N 01°15' E 103°47'0 0.0
2017-May-15 15:30N 01°15' E 103°47'0 0.0
2017-May-15 14:53N 01°15' E 103°47'0 0.0
2017-May-15 13:59N 01°15' E 103°47'0 0.0
2017-May-15 13:29N 01°15' E 103°47'0 0.0
2017-May-15 12:59N 01°15' E 103°47'0 0.0
2017-May-15 12:28N 01°15' E 103°47'0 0.0
2017-May-15 11:58N 01°15' E 103°47'0 0.0
2017-May-15 11:28N 01°15' E 103°47'0 0.0
2017-May-15 10:58N 01°15' E 103°47'0 0.0
2017-May-15 10:28N 01°15' E 103°47'0 0.0
2017-May-15 10:00N 01°15' E 103°47'0 0.0
2017-May-15 09:30N 01°15' E 103°47'0 0.0
2017-May-15 09:00N 01°15' E 103°47'0 0.0
2017-May-15 08:27N 01°15' E 103°47'0 0.0
2017-May-15 07:59N 01°15' E 103°47'0 0.0
2017-May-15 07:29N 01°15' E 103°47'0 0.0
2017-May-15 06:59N 01°15' E 103°47'0 0.0
2017-May-15 06:29N 01°15' E 103°47'0 0.0
2017-May-15 05:59N 01°15' E 103°47'0 0.0
2017-May-15 05:29N 01°15' E 103°47'0 0.2
2017-May-15 05:01N 01°15' E 103°47'1 1.4
2017-May-15 04:30N 01°15' E 103°47'2 4.7
2017-May-15 04:01N 01°13' E 103°48'4 8.7
2017-May-15 03:31N 01°13' E 103°53'3 5.0
2017-May-15 03:01N 01°14' E 103°55'4 8.3
2017-May-15 02:30N 01°15' E 103°59'4 8.9
2017-May-15 02:00N 01°16' E 104°03'610.7
2017-May-15 01:27N 01°17' E 104°09'4 8.1
2017-May-15 00:59N 01°18' E 104°13'  
2017-May-10 06:24N 23°48' E 118°24'  
2017-May-06 23:36N 30°43' E 123°15'111.7
2017-May-06 23:30N 30°44' E 123°14'1010.9
2017-May-06 22:35N 30°51' E 123°06'111.5
2017-May-06 22:30N 30°52' E 123°06'611.7
2017-May-06 22:00N 30°56' E 123°00'611.8
2017-May-06 21:30N 30°60' E 122°56'1111.8
2017-May-06 20:33N 31°05' E 122°44'212.4
2017-May-06 20:21N 31°05' E 122°41'412.4
2017-May-06 20:00N 31°06' E 122°36'713.1
2017-May-06 19:31N 31°06' E 122°28'5 8.8
2017-May-06 18:58N 31°06' E 122°23'613.2
2017-May-06 18:30N 31°07' E 122°16'713.5
2017-May-06 18:00N 31°11' E 122°10'713.5
2017-May-06 17:31N 31°14' E 122°02'714.4
2017-May-06 17:01N 31°16' E 121°54'714.3
2017-May-06 16:30N 31°18' E 121°46'713.1
2017-May-06 16:00N 31°21' E 121°39'4 3.4
2017-May-06 14:43N 31°23' E 121°35'0 0.0
2017-May-06 13:26N 31°23' E 121°35'0 0.0
2017-May-06 12:59N 31°23' E 121°35'  
Track history (hours):
 
Tides and Currents Weather Stations Pressure Air Temp Water Temp Dewpoint Dewpoint Depression Visibility Wind Speed Wind Dir Waves Ship Positions

CMA CGM Thalassa

Last reported at 2017-May-16 10:15 UTC. Time now 2017-May-25 22:06 UTC.
Position N 02°01' E 102°11'.
Warning: this ship's position is 9 days out of date.

Length 347 m; draft 14.2 m.

Type: Ship (hazmat cat A). MMSI: 212151000.

Date/timePositionNaut miles runAvg speedWind from/ knotsBaromVisibWave heightAir tempDewpointWater temp
2017-May-16 10:15N 02°01' E 102°11'417.2
2017-May-16 10:00N 01°58' E 102°15'817.0
2017-May-16 09:30N 01°55' E 102°22'917.1
2017-May-16 08:59N 01°50' E 102°30'817.1
2017-May-16 08:30N 01°47' E 102°37'1018.4
2017-May-16 07:57N 01°42' E 102°47'818.0
2017-May-16 07:30N 01°40' E 102°54'3417.0
2017-May-16 05:30N 01°18' E 103°21'816.0
2017-May-16 05:00N 01°14' E 103°27'815.9
2017-May-16 04:30N 01°12' E 103°35'510.1
2017-May-16 04:00N 01°12' E 103°40'611.0
2017-May-16 03:30N 01°16' E 103°44'2 4.5
2017-May-16 02:59N 01°15' E 103°47'0 0.4
2017-May-16 02:28N 01°15' E 103°47'0 0.0
2017-May-16 01:58N 01°15' E 103°47'0 0.0
2017-May-16 01:28N 01°15' E 103°47'0 0.0
2017-May-16 00:55N 01°15' E 103°47'0 0.0
2017-May-16 00:25N 01°15' E 103°47'0 0.0
2017-May-15 23:57N 01°15' E 103°47'0 0.0
2017-May-15 23:30N 01°15' E 103°47'0 0.0
2017-May-15 22:57N 01°15' E 103°47'0 0.0
2017-May-15 22:30N 01°15' E 103°47'0 0.0
2017-May-15 22:00N 01°15' E 103°47'0 0.0
2017-May-15 21:29N 01°15' E 103°47'0 0.0
2017-May-15 20:59N 01°15' E 103°47'0 0.0
2017-May-15 20:29N 01°15' E 103°47'0 0.0
2017-May-15 19:59N 01°15' E 103°47'0 0.0
2017-May-15 19:28N 01°15' E 103°47'0 0.0
2017-May-15 18:58N 01°15' E 103°47'0 0.0
2017-May-15 18:28N 01°15' E 103°47'0 0.0
2017-May-15 17:58N 01°15' E 103°47'0 0.0
2017-May-15 17:25N 01°15' E 103°47'0 0.0
2017-May-15 17:00N 01°15' E 103°47'0 0.0
2017-May-15 16:30N 01°15' E 103°47'0 0.0
2017-May-15 15:54N 01°15' E 103°47'0 0.0
2017-May-15 15:30N 01°15' E 103°47'0 0.0
2017-May-15 14:53N 01°15' E 103°47'0 0.0
2017-May-15 13:59N 01°15' E 103°47'0 0.0
2017-May-15 13:29N 01°15' E 103°47'0 0.0
2017-May-15 12:59N 01°15' E 103°47'0 0.0
2017-May-15 12:28N 01°15' E 103°47'0 0.0
2017-May-15 11:58N 01°15' E 103°47'0 0.0
2017-May-15 11:28N 01°15' E 103°47'0 0.0
2017-May-15 10:58N 01°15' E 103°47'0 0.0
2017-May-15 10:28N 01°15' E 103°47'0 0.0
2017-May-15 10:00N 01°15' E 103°47'0 0.0
2017-May-15 09:30N 01°15' E 103°47'0 0.0
2017-May-15 09:00N 01°15' E 103°47'0 0.0
2017-May-15 08:27N 01°15' E 103°47'0 0.0
2017-May-15 07:59N 01°15' E 103°47'0 0.0
2017-May-15 07:29N 01°15' E 103°47'0 0.0
2017-May-15 06:59N 01°15' E 103°47'0 0.0
2017-May-15 06:29N 01°15' E 103°47'0 0.0
2017-May-15 05:59N 01°15' E 103°47'0 0.0
2017-May-15 05:29N 01°15' E 103°47'0 0.2
2017-May-15 05:01N 01°15' E 103°47'1 1.4
2017-May-15 04:30N 01°15' E 103°47'2 4.7
2017-May-15 04:01N 01°13' E 103°48'4 8.7
2017-May-15 03:31N 01°13' E 103°53'3 5.0
2017-May-15 03:01N 01°14' E 103°55'4 8.3
2017-May-15 02:30N 01°15' E 103°59'4 8.9
2017-May-15 02:00N 01°16' E 104°03'610.7
2017-May-15 01:27N 01°17' E 104°09'4 8.1
2017-May-15 00:59N 01°18' E 104°13'  
2017-May-10 06:24N 23°48' E 118°24'  
2017-May-06 23:36N 30°43' E 123°15'111.7
2017-May-06 23:30N 30°44' E 123°14'1010.9
2017-May-06 22:35N 30°51' E 123°06'111.5
2017-May-06 22:30N 30°52' E 123°06'611.7
2017-May-06 22:00N 30°56' E 123°00'611.8
2017-May-06 21:30N 30°60' E 122°56'1111.8
2017-May-06 20:33N 31°05' E 122°44'212.4
2017-May-06 20:21N 31°05' E 122°41'412.4
2017-May-06 20:00N 31°06' E 122°36'713.1
2017-May-06 19:31N 31°06' E 122°28'5 8.8
2017-May-06 18:58N 31°06' E 122°23'613.2
2017-May-06 18:30N 31°07' E 122°16'713.5
2017-May-06 18:00N 31°11' E 122°10'713.5
2017-May-06 17:31N 31°14' E 122°02'714.4
2017-May-06 17:01N 31°16' E 121°54'714.3
2017-May-06 16:30N 31°18' E 121°46'713.1
2017-May-06 16:00N 31°21' E 121°39'4 3.4
2017-May-06 14:43N 31°23' E 121°35'0 0.0
2017-May-06 13:26N 31°23' E 121°35'0 0.0
2017-May-06 12:59N 31°23' E 121°35'  

Dump ship's entire track history